DLH1786 ESMS-LOWS
Flight info
| Callsign | DLH1786 |
|---|---|
| Flight time | 1h 17m |
| Altitude | 39000 |
| Route | SALLO M44 KOGIM M725 MASOR DCT UNRIG DCT OSKAN DCT MAREM/N0445F380 DCT VESUB T106 NETES T700 BADIT BADIT2R |
| Aircraft | A20N/M-SDE2E3FGHIRWXY/LB1 |
Departure
| Time | 2026-05-07 16:26 |
|---|---|
| Airport | Malmö Sturup Airport (ESMS) |
Arrival
| Time | 2026-05-07 17:43 |
|---|---|
| Airport | Salzburg Airport (LOWS) |
| Time | Latitude | Longitude | Altitude | Speed | Heading |
|---|---|---|---|---|---|
| 2026-05-07 16:03 | 55.54099 | 13.36768 | 239 ft | 0 kts | 173° |
| 2026-05-07 16:18 | 55.54102 | 13.36767 | 239 ft | 2 kts | 172° |
| 2026-05-07 16:19 | 55.54118 | 13.36764 | 239 ft | 2 kts | 173° |
| 2026-05-07 16:19 | 55.54134 | 13.36760 | 239 ft | 2 kts | 173° |
| 2026-05-07 16:19 | 55.54150 | 13.36755 | 239 ft | 2 kts | 146° |
| 2026-05-07 16:19 | 55.54159 | 13.36731 | 239 ft | 2 kts | 96° |
| 2026-05-07 16:20 | 55.54159 | 13.36721 | 239 ft | 0 kts | 88° |
| 2026-05-07 16:21 | 55.54161 | 13.36758 | 239 ft | 5 kts | 82° |
| 2026-05-07 16:22 | 55.54167 | 13.36847 | 239 ft | 11 kts | 83° |
| 2026-05-07 16:22 | 55.54178 | 13.37013 | 239 ft | 15 kts | 83° |
| 2026-05-07 16:22 | 55.54216 | 13.37164 | 239 ft | 13 kts | 50° |
| 2026-05-07 16:22 | 55.54296 | 13.37190 | 239 ft | 12 kts | 354° |
| 2026-05-07 16:23 | 55.54376 | 13.37174 | 239 ft | 11 kts | 353° |
| 2026-05-07 16:23 | 55.54453 | 13.37157 | 240 ft | 11 kts | 353° |
| 2026-05-07 16:23 | 55.54527 | 13.37142 | 240 ft | 10 kts | 353° |
| 2026-05-07 16:23 | 55.54598 | 13.37134 | 240 ft | 10 kts | 4° |
| 2026-05-07 16:24 | 55.54662 | 13.37162 | 240 ft | 9 kts | 21° |
| 2026-05-07 16:24 | 55.54720 | 13.37204 | 240 ft | 9 kts | 23° |
| 2026-05-07 16:24 | 55.54774 | 13.37256 | 244 ft | 11 kts | 41° |
| 2026-05-07 16:24 | 55.54759 | 13.37382 | 243 ft | 14 kts | 157° |
| 2026-05-07 16:25 | 55.54707 | 13.37399 | 242 ft | 0 kts | 172° |
| 2026-05-07 16:25 | 55.54608 | 13.37422 | 238 ft | 45 kts | 173° |
| 2026-05-07 16:25 | 55.54075 | 13.37530 | 242 ft | 108 kts | 173° |
| 2026-05-07 16:25 | 55.53132 | 13.37724 | 326 ft | 152 kts | 176° |
| 2026-05-07 16:26 | 55.52069 | 13.37942 | 844 ft | 154 kts | 176° |
| 2026-05-07 16:26 | 55.50994 | 13.38160 | 1439 ft | 161 kts | 175° |
| 2026-05-07 16:26 | 55.49849 | 13.38390 | 1949 ft | 174 kts | 174° |
| 2026-05-07 16:26 | 55.49007 | 13.38538 | 2167 ft | 193 kts | 175° |
| 2026-05-07 16:27 | 55.47059 | 13.38826 | 2669 ft | 222 kts | 175° |
| 2026-05-07 16:27 | 55.45472 | 13.39045 | 3150 ft | 239 kts | 175° |
| 2026-05-07 16:27 | 55.43719 | 13.39284 | 3541 ft | 264 kts | 175° |
| 2026-05-07 16:27 | 55.41885 | 13.39529 | 4349 ft | 270 kts | 175° |
| 2026-05-07 16:28 | 55.39998 | 13.39781 | 5232 ft | 273 kts | 175° |
| 2026-05-07 16:28 | 55.38096 | 13.40034 | 6147 ft | 275 kts | 174° |
| 2026-05-07 16:28 | 55.36170 | 13.40290 | 6972 ft | 281 kts | 174° |
| 2026-05-07 16:28 | 55.34212 | 13.40550 | 7847 ft | 283 kts | 175° |
| 2026-05-07 16:29 | 55.32244 | 13.40695 | 8813 ft | 283 kts | 179° |
| 2026-05-07 16:29 | 55.30270 | 13.40639 | 9785 ft | 285 kts | 181° |
| 2026-05-07 16:29 | 55.28276 | 13.40535 | 10539 ft | 293 kts | 182° |
| 2026-05-07 16:29 | 55.26159 | 13.40418 | 10887 ft | 315 kts | 182° |
| 2026-05-07 16:30 | 55.23897 | 13.40294 | 11365 ft | 331 kts | 182° |
| 2026-05-07 16:30 | 55.21570 | 13.40170 | 12149 ft | 337 kts | 182° |
| 2026-05-07 16:30 | 55.19210 | 13.40045 | 12997 ft | 342 kts | 182° |
| 2026-05-07 16:30 | 55.16821 | 13.39920 | 13876 ft | 345 kts | 182° |
| 2026-05-07 16:31 | 55.14437 | 13.39795 | 14656 ft | 349 kts | 182° |
| 2026-05-07 16:31 | 55.11995 | 13.39668 | 15423 ft | 353 kts | 182° |
| 2026-05-07 16:31 | 55.09529 | 13.39540 | 16173 ft | 357 kts | 182° |
| 2026-05-07 16:31 | 55.07035 | 13.39410 | 16909 ft | 361 kts | 182° |
| 2026-05-07 16:32 | 55.04514 | 13.39280 | 17643 ft | 364 kts | 182° |
| 2026-05-07 16:32 | 55.01963 | 13.39148 | 18344 ft | 369 kts | 182° |
| 2026-05-07 16:32 | 54.99384 | 13.39015 | 18970 ft | 372 kts | 183° |
| 2026-05-07 16:32 | 54.96782 | 13.38881 | 19618 ft | 375 kts | 183° |
| 2026-05-07 16:33 | 54.94165 | 13.38746 | 20276 ft | 378 kts | 183° |
| 2026-05-07 16:33 | 54.91561 | 13.38782 | 20916 ft | 381 kts | 178° |
| 2026-05-07 16:33 | 54.88906 | 13.39212 | 21561 ft | 385 kts | 175° |
| 2026-05-07 16:33 | 54.86237 | 13.39854 | 22199 ft | 388 kts | 173° |
| 2026-05-07 16:34 | 54.83560 | 13.40601 | 22800 ft | 391 kts | 172° |
| 2026-05-07 16:34 | 54.80863 | 13.41388 | 23410 ft | 394 kts | 172° |
| 2026-05-07 16:34 | 54.78146 | 13.42178 | 23936 ft | 397 kts | 173° |
| 2026-05-07 16:34 | 54.75402 | 13.42957 | 24401 ft | 401 kts | 172° |
| 2026-05-07 16:35 | 54.72640 | 13.43723 | 24864 ft | 404 kts | 173° |
| 2026-05-07 16:35 | 54.69857 | 13.44479 | 25334 ft | 406 kts | 173° |
| 2026-05-07 16:35 | 54.67056 | 13.45232 | 25797 ft | 408 kts | 173° |
| 2026-05-07 16:35 | 54.64236 | 13.45985 | 26241 ft | 411 kts | 173° |
| 2026-05-07 16:36 | 54.61403 | 13.46739 | 26688 ft | 413 kts | 173° |
| 2026-05-07 16:36 | 54.58594 | 13.47486 | 27121 ft | 415 kts | 173° |
| 2026-05-07 16:36 | 54.55730 | 13.48247 | 27553 ft | 418 kts | 172° |
| 2026-05-07 16:36 | 54.52847 | 13.49013 | 27959 ft | 420 kts | 172° |
| 2026-05-07 16:37 | 54.49952 | 13.49777 | 28393 ft | 421 kts | 173° |
| 2026-05-07 16:37 | 54.47062 | 13.50522 | 28934 ft | 419 kts | 173° |
| 2026-05-07 16:37 | 54.44173 | 13.51256 | 29428 ft | 419 kts | 173° |
| 2026-05-07 16:37 | 54.41274 | 13.51985 | 29813 ft | 422 kts | 173° |
| 2026-05-07 16:38 | 54.39350 | 13.52468 | 30057 ft | 423 kts | 173° |
| 2026-05-07 16:38 | 54.36432 | 13.53198 | 30381 ft | 425 kts | 173° |
| 2026-05-07 16:38 | 54.32533 | 13.54175 | 30747 ft | 429 kts | 173° |
| 2026-05-07 16:38 | 54.29570 | 13.54932 | 31050 ft | 430 kts | 173° |
| 2026-05-07 16:39 | 54.26611 | 13.55704 | 31424 ft | 430 kts | 172° |
| 2026-05-07 16:39 | 54.24613 | 13.56230 | 31681 ft | 430 kts | 172° |
| 2026-05-07 16:39 | 54.21700 | 13.56997 | 32122 ft | 427 kts | 172° |
| 2026-05-07 16:39 | 54.18772 | 13.57767 | 32596 ft | 424 kts | 172° |
| 2026-05-07 16:40 | 54.15844 | 13.58533 | 32875 ft | 426 kts | 172° |
| 2026-05-07 16:40 | 54.12902 | 13.59299 | 33164 ft | 427 kts | 172° |
| 2026-05-07 16:40 | 54.09967 | 13.60060 | 33504 ft | 427 kts | 172° |
| 2026-05-07 16:40 | 54.07014 | 13.60823 | 33708 ft | 430 kts | 172° |
| 2026-05-07 16:41 | 54.04059 | 13.61586 | 34059 ft | 429 kts | 172° |
| 2026-05-07 16:41 | 54.01116 | 13.62345 | 34431 ft | 426 kts | 172° |
| 2026-05-07 16:41 | 53.98180 | 13.63100 | 34618 ft | 428 kts | 172° |
| 2026-05-07 16:41 | 53.95249 | 13.63853 | 34941 ft | 425 kts | 172° |
| 2026-05-07 16:42 | 53.92309 | 13.64372 | 35195 ft | 424 kts | 179° |
| 2026-05-07 16:42 | 53.89394 | 13.64479 | 35343 ft | 426 kts | 180° |
| 2026-05-07 16:42 | 53.86430 | 13.64478 | 35549 ft | 426 kts | 181° |
| 2026-05-07 16:42 | 53.83458 | 13.64415 | 35722 ft | 428 kts | 181° |
| 2026-05-07 16:43 | 53.80479 | 13.64323 | 35977 ft | 427 kts | 182° |
| 2026-05-07 16:43 | 53.77506 | 13.64223 | 36219 ft | 426 kts | 182° |
| 2026-05-07 16:43 | 53.74549 | 13.64125 | 36464 ft | 425 kts | 182° |
| 2026-05-07 16:43 | 53.71585 | 13.64033 | 36623 ft | 427 kts | 182° |
| 2026-05-07 16:44 | 53.68615 | 13.63946 | 36831 ft | 427 kts | 182° |
| 2026-05-07 16:44 | 53.65638 | 13.63864 | 36990 ft | 427 kts | 182° |
| 2026-05-07 16:44 | 53.62669 | 13.63785 | 37204 ft | 427 kts | 182° |
| 2026-05-07 16:44 | 53.59705 | 13.63707 | 37408 ft | 426 kts | 182° |
| 2026-05-07 16:45 | 53.56777 | 13.63630 | 37589 ft | 426 kts | 182° |
| 2026-05-07 16:45 | 53.53808 | 13.63552 | 37777 ft | 426 kts | 182° |
| 2026-05-07 16:45 | 53.50844 | 13.63474 | 37953 ft | 426 kts | 182° |
| 2026-05-07 16:45 | 53.47878 | 13.63396 | 38141 ft | 426 kts | 182° |
| 2026-05-07 16:46 | 53.44909 | 13.63318 | 38304 ft | 426 kts | 182° |
| 2026-05-07 16:46 | 53.41942 | 13.63240 | 38474 ft | 426 kts | 182° |
| 2026-05-07 16:46 | 53.38971 | 13.63162 | 38632 ft | 426 kts | 182° |
| 2026-05-07 16:46 | 53.36004 | 13.63084 | 38778 ft | 426 kts | 182° |
| 2026-05-07 16:47 | 53.33074 | 13.63007 | 38894 ft | 426 kts | 182° |
| 2026-05-07 16:47 | 53.30105 | 13.62930 | 39007 ft | 426 kts | 182° |
| 2026-05-07 16:47 | 53.27137 | 13.62852 | 39077 ft | 428 kts | 182° |
| 2026-05-07 16:48 | 53.21178 | 13.62697 | 39083 ft | 428 kts | 182° |
| 2026-05-07 16:48 | 53.15234 | 13.62543 | 39083 ft | 427 kts | 182° |
| 2026-05-07 16:49 | 53.09290 | 13.62389 | 39081 ft | 427 kts | 182° |
| 2026-05-07 16:49 | 53.03352 | 13.62235 | 39081 ft | 427 kts | 182° |
| 2026-05-07 16:50 | 52.97451 | 13.62083 | 39084 ft | 427 kts | 182° |
| 2026-05-07 16:50 | 52.91498 | 13.61930 | 39081 ft | 429 kts | 182° |
| 2026-05-07 16:51 | 52.85511 | 13.61776 | 39077 ft | 431 kts | 182° |
| 2026-05-07 16:51 | 52.79515 | 13.61623 | 39074 ft | 431 kts | 182° |
| 2026-05-07 16:52 | 52.73519 | 13.61471 | 39078 ft | 431 kts | 182° |
| 2026-05-07 16:52 | 52.67521 | 13.61318 | 39078 ft | 431 kts | 182° |
| 2026-05-07 16:53 | 52.61559 | 13.61167 | 39077 ft | 431 kts | 182° |
| 2026-05-07 16:53 | 52.55566 | 13.61016 | 39074 ft | 431 kts | 182° |
| 2026-05-07 16:54 | 52.49577 | 13.60865 | 39078 ft | 430 kts | 182° |
| 2026-05-07 16:54 | 52.43599 | 13.60715 | 39075 ft | 430 kts | 182° |
| 2026-05-07 16:55 | 52.37616 | 13.60564 | 39077 ft | 430 kts | 182° |
| 2026-05-07 16:55 | 52.31635 | 13.60414 | 39075 ft | 430 kts | 182° |
| 2026-05-07 16:56 | 52.25647 | 13.60265 | 39074 ft | 430 kts | 182° |
| 2026-05-07 16:56 | 52.16668 | 13.60042 | 39074 ft | 431 kts | 182° |
| 2026-05-07 16:57 | 52.10709 | 13.59894 | 39073 ft | 431 kts | 182° |
| 2026-05-07 16:57 | 52.04713 | 13.59746 | 39070 ft | 431 kts | 182° |
| 2026-05-07 16:58 | 51.98715 | 13.59599 | 39070 ft | 431 kts | 182° |
| 2026-05-07 16:58 | 51.92716 | 13.59451 | 39064 ft | 431 kts | 182° |
| 2026-05-07 16:59 | 51.86708 | 13.59327 | 39065 ft | 432 kts | 181° |
| 2026-05-07 16:59 | 51.80698 | 13.59672 | 39066 ft | 432 kts | 179° |
| 2026-05-07 17:00 | 51.74727 | 13.60255 | 39064 ft | 433 kts | 178° |
| 2026-05-07 17:00 | 51.68752 | 13.60830 | 39062 ft | 423 kts | 179° |
| 2026-05-07 17:01 | 51.62891 | 13.61350 | 39058 ft | 424 kts | 179° |
| 2026-05-07 17:01 | 51.56952 | 13.61851 | 39045 ft | 430 kts | 179° |
| 2026-05-07 17:02 | 51.50943 | 13.62355 | 39046 ft | 432 kts | 179° |
| 2026-05-07 17:02 | 51.44984 | 13.62806 | 39046 ft | 431 kts | 180° |
| 2026-05-07 17:03 | 51.38987 | 13.62886 | 39039 ft | 431 kts | 182° |
| 2026-05-07 17:03 | 51.32986 | 13.62835 | 39039 ft | 431 kts | 182° |
| 2026-05-07 17:04 | 51.27022 | 13.62803 | 39044 ft | 431 kts | 182° |
| 2026-05-07 17:04 | 51.21030 | 13.62802 | 39046 ft | 431 kts | 182° |
| 2026-05-07 17:05 | 51.15025 | 13.62812 | 39048 ft | 431 kts | 182° |
| 2026-05-07 17:05 | 51.09023 | 13.62823 | 39047 ft | 431 kts | 182° |
| 2026-05-07 17:06 | 51.03024 | 13.62833 | 39046 ft | 431 kts | 182° |
| 2026-05-07 17:06 | 50.97021 | 13.62843 | 39042 ft | 431 kts | 182° |
| 2026-05-07 17:07 | 50.91062 | 13.62853 | 39037 ft | 431 kts | 182° |
| 2026-05-07 17:07 | 50.85064 | 13.62862 | 39034 ft | 431 kts | 182° |
| 2026-05-07 17:08 | 50.79064 | 13.62870 | 39022 ft | 431 kts | 182° |
| 2026-05-07 17:08 | 50.73067 | 13.62727 | 39020 ft | 430 kts | 188° |
| 2026-05-07 17:09 | 50.67256 | 13.60759 | 39016 ft | 427 kts | 198° |
| 2026-05-07 17:09 | 50.61578 | 13.58020 | 39006 ft | 427 kts | 199° |
| 2026-05-07 17:10 | 50.55926 | 13.55147 | 39012 ft | 427 kts | 199° |
| 2026-05-07 17:10 | 50.50304 | 13.52302 | 39008 ft | 427 kts | 199° |
| 2026-05-07 17:11 | 50.44639 | 13.49477 | 39009 ft | 427 kts | 199° |
| 2026-05-07 17:11 | 50.38970 | 13.46673 | 39010 ft | 427 kts | 199° |
| 2026-05-07 17:12 | 50.33301 | 13.43879 | 39007 ft | 427 kts | 199° |
| 2026-05-07 17:12 | 50.27630 | 13.41089 | 39004 ft | 427 kts | 199° |
| 2026-05-07 17:13 | 50.21956 | 13.38305 | 39005 ft | 427 kts | 199° |
| 2026-05-07 17:13 | 50.16290 | 13.35530 | 39001 ft | 427 kts | 199° |
| 2026-05-07 17:14 | 50.10617 | 13.32759 | 38993 ft | 427 kts | 199° |
| 2026-05-07 17:14 | 50.04942 | 13.29994 | 38999 ft | 427 kts | 199° |
| 2026-05-07 17:15 | 49.99264 | 13.27234 | 38999 ft | 427 kts | 199° |
| 2026-05-07 17:15 | 49.93589 | 13.24483 | 38998 ft | 427 kts | 199° |
| 2026-05-07 17:16 | 49.87961 | 13.21761 | 39006 ft | 427 kts | 199° |
| 2026-05-07 17:16 | 49.82288 | 13.19024 | 39015 ft | 427 kts | 199° |
| 2026-05-07 17:17 | 49.76611 | 13.16292 | 39017 ft | 427 kts | 199° |
| 2026-05-07 17:17 | 49.73774 | 13.14929 | 38830 ft | 427 kts | 199° |
| 2026-05-07 17:17 | 49.70935 | 13.13567 | 38598 ft | 426 kts | 199° |
| 2026-05-07 17:18 | 49.68094 | 13.12205 | 38318 ft | 427 kts | 199° |
| 2026-05-07 17:18 | 49.65257 | 13.10848 | 38030 ft | 427 kts | 199° |
| 2026-05-07 17:18 | 49.62422 | 13.09493 | 37677 ft | 426 kts | 199° |
| 2026-05-07 17:18 | 49.59628 | 13.08159 | 37009 ft | 428 kts | 199° |
| 2026-05-07 17:19 | 49.56768 | 13.06794 | 36282 ft | 431 kts | 199° |
| 2026-05-07 17:19 | 49.53891 | 13.05423 | 35584 ft | 434 kts | 199° |
| 2026-05-07 17:19 | 49.50993 | 13.04044 | 34921 ft | 436 kts | 199° |
| 2026-05-07 17:19 | 49.48083 | 13.02661 | 34278 ft | 439 kts | 199° |
| 2026-05-07 17:20 | 49.45161 | 13.01275 | 33640 ft | 439 kts | 199° |
| 2026-05-07 17:20 | 49.42288 | 12.99784 | 33177 ft | 433 kts | 204° |
| 2026-05-07 17:20 | 49.39538 | 12.97956 | 32697 ft | 428 kts | 206° |
| 2026-05-07 17:20 | 49.36839 | 12.96068 | 32193 ft | 425 kts | 207° |
| 2026-05-07 17:21 | 49.34208 | 12.94174 | 31701 ft | 421 kts | 207° |
| 2026-05-07 17:21 | 49.31569 | 12.92247 | 31222 ft | 418 kts | 207° |
| 2026-05-07 17:21 | 49.28953 | 12.90329 | 30723 ft | 416 kts | 207° |
| 2026-05-07 17:21 | 49.26350 | 12.88422 | 30287 ft | 412 kts | 207° |
| 2026-05-07 17:22 | 49.23772 | 12.86541 | 29849 ft | 407 kts | 208° |
| 2026-05-07 17:22 | 49.21240 | 12.84701 | 29562 ft | 399 kts | 208° |
| 2026-05-07 17:22 | 49.18751 | 12.82894 | 29269 ft | 394 kts | 208° |
| 2026-05-07 17:22 | 49.16271 | 12.81095 | 28702 ft | 395 kts | 208° |
| 2026-05-07 17:23 | 49.13785 | 12.79292 | 28014 ft | 397 kts | 208° |
| 2026-05-07 17:23 | 49.11287 | 12.77482 | 27338 ft | 398 kts | 208° |
| 2026-05-07 17:23 | 49.08778 | 12.75667 | 26675 ft | 400 kts | 208° |
| 2026-05-07 17:23 | 49.06262 | 12.73852 | 26069 ft | 400 kts | 208° |
| 2026-05-07 17:24 | 49.03778 | 12.72064 | 25504 ft | 399 kts | 208° |
| 2026-05-07 17:24 | 49.01263 | 12.70257 | 24957 ft | 399 kts | 208° |
| 2026-05-07 17:24 | 48.98760 | 12.68460 | 24420 ft | 398 kts | 208° |
| 2026-05-07 17:24 | 48.96261 | 12.66669 | 23897 ft | 396 kts | 208° |
| 2026-05-07 17:25 | 48.93768 | 12.64895 | 23333 ft | 395 kts | 206° |
| 2026-05-07 17:25 | 48.91139 | 12.63659 | 22724 ft | 398 kts | 193° |
| 2026-05-07 17:25 | 48.88365 | 12.63446 | 22134 ft | 400 kts | 180° |
| 2026-05-07 17:25 | 48.85591 | 12.63795 | 21533 ft | 400 kts | 176° |
| 2026-05-07 17:26 | 48.82839 | 12.64410 | 20959 ft | 399 kts | 173° |
| 2026-05-07 17:26 | 48.80116 | 12.65154 | 20396 ft | 397 kts | 172° |
| 2026-05-07 17:26 | 48.77413 | 12.65938 | 19849 ft | 394 kts | 172° |
| 2026-05-07 17:26 | 48.74732 | 12.66715 | 19311 ft | 391 kts | 172° |
| 2026-05-07 17:27 | 48.72054 | 12.67471 | 18780 ft | 389 kts | 173° |
| 2026-05-07 17:27 | 48.69403 | 12.68196 | 18250 ft | 386 kts | 173° |
| 2026-05-07 17:27 | 48.66803 | 12.68889 | 17661 ft | 383 kts | 173° |
| 2026-05-07 17:27 | 48.64184 | 12.69575 | 17069 ft | 380 kts | 173° |
| 2026-05-07 17:28 | 48.61603 | 12.70246 | 16486 ft | 370 kts | 173° |
| 2026-05-07 17:28 | 48.59101 | 12.70867 | 15923 ft | 359 kts | 175° |
| 2026-05-07 17:28 | 48.56663 | 12.71420 | 15358 ft | 350 kts | 175° |
| 2026-05-07 17:28 | 48.54283 | 12.71930 | 14828 ft | 341 kts | 176° |
| 2026-05-07 17:29 | 48.51948 | 12.72416 | 14194 ft | 337 kts | 176° |
| 2026-05-07 17:29 | 48.49638 | 12.72893 | 13508 ft | 333 kts | 176° |
| 2026-05-07 17:29 | 48.47355 | 12.73367 | 12791 ft | 329 kts | 176° |
| 2026-05-07 17:29 | 48.45099 | 12.73839 | 12091 ft | 326 kts | 176° |
| 2026-05-07 17:30 | 48.42896 | 12.74303 | 11411 ft | 322 kts | 176° |
| 2026-05-07 17:30 | 48.40690 | 12.74786 | 10741 ft | 320 kts | 173° |
| 2026-05-07 17:30 | 48.38516 | 12.75483 | 10080 ft | 317 kts | 171° |
| 2026-05-07 17:30 | 48.36377 | 12.76226 | 9374 ft | 314 kts | 170° |
| 2026-05-07 17:31 | 48.34261 | 12.76981 | 8664 ft | 311 kts | 169° |
| 2026-05-07 17:31 | 48.32170 | 12.77733 | 7976 ft | 308 kts | 169° |
| 2026-05-07 17:31 | 48.30100 | 12.78482 | 7326 ft | 304 kts | 169° |
| 2026-05-07 17:31 | 48.28074 | 12.79216 | 6880 ft | 294 kts | 169° |
| 2026-05-07 17:32 | 48.26141 | 12.79921 | 6667 ft | 279 kts | 169° |
| 2026-05-07 17:32 | 48.24268 | 12.80600 | 6436 ft | 277 kts | 169° |
| 2026-05-07 17:32 | 48.22397 | 12.81276 | 6262 ft | 276 kts | 169° |
| 2026-05-07 17:32 | 48.21163 | 12.81722 | 6173 ft | 276 kts | 169° |
| 2026-05-07 17:33 | 48.18696 | 12.82614 | 6006 ft | 275 kts | 169° |
| 2026-05-07 17:33 | 48.16837 | 12.83286 | 5877 ft | 275 kts | 168° |
| 2026-05-07 17:33 | 48.14977 | 12.83959 | 5752 ft | 275 kts | 168° |
| 2026-05-07 17:33 | 48.13118 | 12.84632 | 5620 ft | 274 kts | 168° |
| 2026-05-07 17:34 | 48.11270 | 12.85301 | 5477 ft | 273 kts | 169° |
| 2026-05-07 17:34 | 48.09421 | 12.85969 | 5363 ft | 273 kts | 168° |
| 2026-05-07 17:34 | 48.07572 | 12.86636 | 5238 ft | 273 kts | 168° |
| 2026-05-07 17:34 | 48.05727 | 12.87302 | 5106 ft | 273 kts | 168° |
| 2026-05-07 17:35 | 48.03882 | 12.87968 | 4984 ft | 273 kts | 168° |
| 2026-05-07 17:35 | 48.02055 | 12.88751 | 4854 ft | 274 kts | 158° |
| 2026-05-07 17:35 | 48.00492 | 12.90339 | 4724 ft | 275 kts | 132° |
| 2026-05-07 17:35 | 47.99555 | 12.92758 | 4597 ft | 275 kts | 110° |
| 2026-05-07 17:36 | 47.98970 | 12.95485 | 4472 ft | 275 kts | 106° |
| 2026-05-07 17:36 | 47.98437 | 12.98197 | 4340 ft | 267 kts | 110° |
| 2026-05-07 17:36 | 47.97521 | 13.00499 | 4206 ft | 253 kts | 136° |
| 2026-05-07 17:36 | 47.96074 | 13.01811 | 4089 ft | 239 kts | 163° |
| 2026-05-07 17:37 | 47.94499 | 13.02428 | 3966 ft | 230 kts | 169° |
| 2026-05-07 17:37 | 47.92949 | 13.02896 | 3852 ft | 220 kts | 171° |
| 2026-05-07 17:37 | 47.91511 | 13.03317 | 3771 ft | 205 kts | 171° |
| 2026-05-07 17:37 | 47.90184 | 13.03710 | 3649 ft | 184 kts | 171° |
| 2026-05-07 17:38 | 47.89019 | 13.04063 | 3602 ft | 158 kts | 172° |
| 2026-05-07 17:38 | 47.87992 | 13.04375 | 3419 ft | 146 kts | 172° |
| 2026-05-07 17:38 | 47.87018 | 13.04667 | 3187 ft | 141 kts | 173° |
| 2026-05-07 17:38 | 47.86061 | 13.04954 | 3003 ft | 140 kts | 173° |
| 2026-05-07 17:39 | 47.85117 | 13.05235 | 2864 ft | 140 kts | 171° |
| 2026-05-07 17:39 | 47.84162 | 13.05524 | 2721 ft | 140 kts | 172° |
| 2026-05-07 17:39 | 47.83205 | 13.05813 | 2562 ft | 140 kts | 171° |
| 2026-05-07 17:39 | 47.82252 | 13.06103 | 2475 ft | 139 kts | 170° |
| 2026-05-07 17:40 | 47.81308 | 13.06390 | 2345 ft | 138 kts | 170° |
| 2026-05-07 17:40 | 47.80371 | 13.06674 | 2286 ft | 138 kts | 168° |
| 2026-05-07 17:40 | 47.79431 | 13.06960 | 2277 ft | 138 kts | 168° |
| 2026-05-07 17:40 | 47.78808 | 13.07150 | 2272 ft | 138 kts | 168° |
| 2026-05-07 17:41 | 47.77551 | 13.07531 | 2272 ft | 138 kts | 170° |
| 2026-05-07 17:41 | 47.76918 | 13.07607 | 2262 ft | 138 kts | 183° |
| 2026-05-07 17:41 | 47.76010 | 13.07200 | 2250 ft | 138 kts | 212° |
| 2026-05-07 17:41 | 47.75359 | 13.06182 | 2236 ft | 137 kts | 242° |
| 2026-05-07 17:42 | 47.75163 | 13.04370 | 2171 ft | 137 kts | 282° |
| 2026-05-07 17:42 | 47.75557 | 13.03092 | 1985 ft | 140 kts | 311° |
| 2026-05-07 17:42 | 47.76049 | 13.02473 | 1800 ft | 134 kts | 335° |
| 2026-05-07 17:42 | 47.76878 | 13.01914 | 1680 ft | 129 kts | 343° |
| 2026-05-07 17:43 | 47.77703 | 13.01428 | 1540 ft | 129 kts | 341° |
| 2026-05-07 17:43 | 47.78532 | 13.00900 | 1442 ft | 129 kts | 340° |
| 2026-05-07 17:43 | 47.79249 | 13.00449 | 1424 ft | 79 kts | 337° |
| 2026-05-07 17:43 | 47.79532 | 13.00270 | 1428 ft | 31 kts | 337° |
| 2026-05-07 17:44 | 47.79737 | 13.00141 | 1424 ft | 34 kts | 336° |
| 2026-05-07 17:44 | 47.79967 | 12.99995 | 1422 ft | 37 kts | 337° |
| 2026-05-07 17:44 | 47.80162 | 12.99872 | 1424 ft | 26 kts | 337° |
| 2026-05-07 17:44 | 47.80266 | 12.99799 | 1423 ft | 12 kts | 316° |
| 2026-05-07 17:45 | 47.80275 | 12.99700 | 1426 ft | 9 kts | 258° |
| 2026-05-07 17:45 | 47.80236 | 12.99606 | 1427 ft | 13 kts | 213° |
| 2026-05-07 17:45 | 47.80129 | 12.99627 | 1425 ft | 19 kts | 156° |
| 2026-05-07 17:45 | 47.80005 | 12.99706 | 1426 ft | 19 kts | 156° |
| 2026-05-07 17:46 | 47.79878 | 12.99788 | 1425 ft | 20 kts | 156° |
| 2026-05-07 17:46 | 47.79754 | 12.99864 | 1425 ft | 19 kts | 156° |
| 2026-05-07 17:46 | 47.79631 | 12.99941 | 1425 ft | 19 kts | 157° |
| 2026-05-07 17:46 | 47.79513 | 13.00015 | 1426 ft | 18 kts | 157° |
| 2026-05-07 17:47 | 47.79411 | 13.00079 | 1425 ft | 13 kts | 159° |
| 2026-05-07 17:47 | 47.79348 | 13.00028 | 1425 ft | 11 kts | 245° |
| 2026-05-07 17:47 | 47.79305 | 12.99950 | 1425 ft | 9 kts | 197° |
| 2026-05-07 17:47 | 47.79245 | 12.99971 | 1425 ft | 9 kts | 158° |
| 2026-05-07 17:48 | 47.79202 | 13.00003 | 1425 ft | 5 kts | 137° |
| 2026-05-07 17:48 | 47.79187 | 13.00052 | 1425 ft | 5 kts | 104° |
| 2026-05-07 17:48 | 47.79179 | 13.00102 | 1425 ft | 4 kts | 103° |
| 2026-05-07 17:48 | 47.79176 | 13.00120 | 1425 ft | 0 kts | 103° |